createdAt,value
2019-01-03T00:01:37.520Z,-2.26
2019-01-03T00:04:46.086Z,-2.29
2019-01-03T00:07:57.425Z,-2.22
2019-01-03T00:11:11.264Z,-2.22
2019-01-03T00:14:25.968Z,-2.25
2019-01-03T00:20:35.552Z,-2.29
2019-01-03T00:23:25.180Z,-2.26
2019-01-03T00:26:15.234Z,-2.28
2019-01-03T00:29:05.074Z,-2.23
2019-01-03T00:31:55.848Z,-2.22
2019-01-03T00:34:37.121Z,-2.23
2019-01-03T00:37:22.694Z,-2.21
2019-01-03T00:43:15.712Z,-2.20
2019-01-03T00:46:19.799Z,-2.21
2019-01-03T00:49:04.909Z,-2.22
2019-01-03T00:51:55.027Z,-2.18
2019-01-03T00:54:45.244Z,-2.18
2019-01-03T00:57:34.830Z,-2.18
2019-01-03T01:03:53.963Z,-2.17
2019-01-03T01:06:44.268Z,-2.20
2019-01-03T01:09:33.889Z,-2.15
2019-01-03T01:12:23.775Z,-2.16
2019-01-03T01:15:05.415Z,-2.16
2019-01-03T01:18:14.081Z,-2.16
2019-01-03T01:21:03.764Z,-2.17
2019-01-03T01:24:12.673Z,-2.17
2019-01-03T01:30:04.932Z,-2.18
2019-01-03T01:32:56.137Z,-2.21
2019-01-03T01:35:42.800Z,-2.22
2019-01-03T01:38:34.044Z,-2.22
2019-01-03T01:41:23.987Z,-2.19
2019-01-03T01:47:09.607Z,-2.27
2019-01-03T01:50:18.252Z,-2.31
2019-01-03T01:53:08.399Z,-2.23
2019-01-03T01:56:16.945Z,-2.18
2019-01-03T02:02:08.871Z,-2.22
2019-01-03T02:05:10.285Z,-2.20
2019-01-03T02:08:14.092Z,-2.17
2019-01-03T02:11:03.735Z,-2.15
2019-01-03T02:13:53.509Z,-2.16
2019-01-03T02:16:43.112Z,-2.15
2019-01-03T02:19:24.719Z,-2.21
2019-01-03T02:22:14.326Z,-2.18
2019-01-03T02:28:21.748Z,-2.12
2019-01-03T02:31:11.687Z,-2.14
2019-01-03T02:34:07.386Z,-2.18
2019-01-03T02:36:57.575Z,-2.19
2019-01-03T02:39:48.757Z,-2.22
2019-01-03T02:45:59.617Z,-2.31
2019-01-03T02:48:50.034Z,-2.32
2019-01-03T02:51:39.868Z,-2.38
2019-01-03T02:57:32.100Z,-2.47
2019-01-03T03:00:22.007Z,-2.48
2019-01-03T03:03:11.605Z,-2.44
2019-01-03T03:06:20.556Z,-2.46
2019-01-03T03:09:29.296Z,-2.44
2019-01-03T03:12:19.195Z,-2.48
2019-01-03T03:15:08.801Z,-2.47
2019-01-03T03:17:58.705Z,-2.56
2019-01-03T03:20:48.324Z,-2.56
2019-01-03T03:23:38.824Z,-2.53
2019-01-03T03:26:28.526Z,-2.60
2019-01-03T03:29:37.487Z,-2.67
2019-01-03T03:32:26.501Z,-2.73
2019-01-03T03:35:35.424Z,-2.76
2019-01-03T03:38:25.791Z,-2.79
2019-01-03T03:41:15.715Z,-2.84
2019-01-03T03:44:26.482Z,-2.79
2019-01-03T03:47:16.438Z,-2.78
2019-01-03T03:50:06.045Z,-2.76
2019-01-03T03:56:04.344Z,-2.75
2019-01-03T03:58:54.729Z,-2.68
2019-01-03T04:01:44.397Z,-2.64
2019-01-03T04:04:34.296Z,-2.67
2019-01-03T04:07:23.892Z,-2.69
2019-01-03T04:13:15.627Z,-2.66
2019-01-03T04:16:05.788Z,-2.62
2019-01-03T04:18:55.439Z,-2.62
2019-01-03T04:21:45.154Z,-2.63
2019-01-03T04:24:34.907Z,-2.66
2019-01-03T04:27:24.616Z,-2.63
2019-01-03T04:30:15.226Z,-2.60
2019-01-03T04:33:05.136Z,-2.58
2019-01-03T04:35:55.023Z,-2.59
2019-01-03T04:38:46.167Z,-2.54
2019-01-03T04:41:36.071Z,-2.52
2019-01-03T04:44:17.336Z,-2.52
2019-01-03T04:47:06.934Z,-2.52
2019-01-03T04:56:11.668Z,-2.61
2019-01-03T04:59:01.776Z,-2.67
2019-01-03T05:02:10.949Z,-2.74
2019-01-03T05:05:00.587Z,-2.73
2019-01-03T05:08:09.474Z,-2.78
2019-01-03T05:10:59.002Z,-2.79
2019-01-03T05:14:09.071Z,-2.81
2019-01-03T05:16:58.627Z,-2.80
2019-01-03T05:19:48.510Z,-2.80
2019-01-03T05:22:38.612Z,-2.86
2019-01-03T05:25:30.826Z,-2.88
2019-01-03T05:28:20.661Z,-2.83
2019-01-03T05:31:10.643Z,-2.82
2019-01-03T05:34:00.248Z,-2.78
2019-01-03T05:39:51.899Z,-2.70
2019-01-03T05:42:41.459Z,-2.73
2019-01-03T05:45:23.594Z,-2.72
2019-01-03T05:48:13.142Z,-2.73
2019-01-03T05:50:56.564Z,-2.78
2019-01-03T05:53:46.189Z,-2.78
2019-01-03T05:56:36.187Z,-2.75
2019-01-03T05:59:26.862Z,-2.73
2019-01-03T06:05:19.357Z,-2.70
2019-01-03T06:08:09.155Z,-2.73
2019-01-03T06:10:58.716Z,-2.70
2019-01-03T06:13:48.622Z,-2.69
2019-01-03T06:16:38.269Z,-2.68
2019-01-03T06:19:28.269Z,-2.67
2019-01-03T06:22:17.945Z,-2.65
2019-01-03T06:25:07.873Z,-2.66
2019-01-03T06:27:57.556Z,-2.65
2019-01-03T06:30:47.492Z,-2.63
2019-01-03T06:33:56.073Z,-2.61
2019-01-03T06:39:46.728Z,-2.74
2019-01-03T06:42:36.300Z,-2.75
2019-01-03T06:45:26.620Z,-2.80
2019-01-03T06:48:35.196Z,-2.77
2019-01-03T06:51:24.955Z,-2.80
2019-01-03T06:54:54.382Z,-2.85
2019-01-03T06:57:44.014Z,-2.87
2019-01-03T07:00:33.711Z,-2.83
2019-01-03T07:03:23.641Z,-2.83
2019-01-03T07:09:15.772Z,-2.80
2019-01-03T07:12:24.470Z,-2.77
2019-01-03T07:18:16.210Z,-2.74
2019-01-03T07:21:05.823Z,-2.71
2019-01-03T07:26:57.698Z,-2.72
2019-01-03T07:29:39.845Z,-2.74
2019-01-03T07:32:29.502Z,-2.77
2019-01-03T07:35:38.341Z,-2.77
2019-01-03T07:38:28.372Z,-2.74
2019-01-03T07:41:18.214Z,-2.76
2019-01-03T07:44:07.893Z,-2.81
2019-01-03T07:50:13.640Z,-2.85
2019-01-03T07:53:03.231Z,-2.89
2019-01-03T07:55:53.125Z,-2.94
2019-01-03T07:58:45.055Z,-2.94
2019-01-03T08:01:32.072Z,-2.95
2019-01-03T08:04:23.129Z,-2.95
2019-01-03T08:07:13.030Z,-2.94
2019-01-03T08:10:04.245Z,-2.94
2019-01-03T08:15:57.240Z,-2.91
2019-01-03T08:18:47.444Z,-2.98
2019-01-03T08:21:37.161Z,-2.97
2019-01-03T08:24:29.513Z,-2.94
2019-01-03T08:27:38.223Z,-2.96
2019-01-03T08:30:28.476Z,-2.88
2019-01-03T08:33:20.123Z,-2.82
2019-01-03T08:36:10.006Z,-2.74
2019-01-03T08:38:59.770Z,-2.69
2019-01-03T08:41:49.661Z,-2.68
2019-01-03T08:44:39.349Z,-2.67
2019-01-03T08:47:28.944Z,-2.69
2019-01-03T08:56:35.053Z,-2.70
2019-01-03T08:59:19.057Z,-2.66
2019-01-03T09:02:11.148Z,-2.65
2019-01-03T09:05:15.242Z,-2.58
2019-01-03T09:08:01.542Z,-2.57
2019-01-03T09:11:32.151Z,-2.59
2019-01-03T09:14:21.761Z,-2.57
2019-01-03T09:17:11.899Z,-2.44
2019-01-03T09:23:04.108Z,-2.22
2019-01-03T09:29:05.434Z,-2.17
2019-01-03T09:31:55.069Z,-2.13
2019-01-03T09:34:45.091Z,-1.95
2019-01-03T09:37:34.692Z,-1.83
2019-01-03T09:40:26.193Z,-1.67
2019-01-03T09:43:16.071Z,-1.59
2019-01-03T09:45:47.140Z,-1.55
2019-01-03T09:48:29.073Z,-1.48
2019-01-03T09:51:11.033Z,-1.51
2019-01-03T09:53:41.838Z,-1.44
2019-01-03T09:56:12.878Z,-1.43
2019-01-03T09:58:55.348Z,-1.41
2019-01-03T10:01:38.013Z,-1.41
2019-01-03T10:04:09.052Z,-1.46
2019-01-03T10:10:15.448Z,-1.38
2019-01-03T10:12:46.328Z,-1.34
2019-01-03T10:15:17.468Z,-1.25
2019-01-03T10:18:07.984Z,-1.22
2019-01-03T10:20:38.770Z,-1.19
2019-01-03T10:23:09.492Z,-1.11
2019-01-03T10:25:52.189Z,-1.02
2019-01-03T10:28:34.993Z,-0.93
2019-01-03T10:31:24.545Z,-0.90
2019-01-03T10:33:55.960Z,-0.92
2019-01-03T10:36:39.829Z,-0.90
2019-01-03T10:39:22.458Z,-0.85
2019-01-03T10:41:53.250Z,-0.76
2019-01-03T10:47:35.333Z,-0.58
2019-01-03T10:53:12.811Z,-0.73
2019-01-03T10:56:23.273Z,-0.73
2019-01-03T10:58:54.098Z,-0.73
2019-01-03T11:01:24.957Z,-0.82
2019-01-03T11:03:57.451Z,-0.81
2019-01-03T11:06:28.277Z,-0.76
2019-01-03T11:09:18.360Z,-0.71
2019-01-03T11:11:49.205Z,-0.68
2019-01-03T11:17:46.234Z,-0.65
2019-01-03T11:20:19.009Z,-0.70
2019-01-03T11:22:50.106Z,-0.75
2019-01-03T11:28:24.074Z,-0.80
2019-01-03T11:30:57.344Z,-0.89
2019-01-03T11:33:40.042Z,-0.88
2019-01-03T11:36:23.729Z,-0.86
2019-01-03T11:39:13.537Z,-0.82
2019-01-03T11:41:44.642Z,-0.79
2019-01-03T11:44:27.197Z,-0.80
2019-01-03T11:47:09.419Z,-0.84
2019-01-03T11:49:40.253Z,-0.77
2019-01-03T12:05:13.325Z,-0.65
2019-01-03T12:07:56.458Z,-0.68
2019-01-03T12:10:46.668Z,-0.65
2019-01-03T12:13:18.040Z,-0.61
2019-01-03T12:15:51.319Z,-0.58
2019-01-03T12:18:41.454Z,-0.56
2019-01-03T12:23:58.954Z,-0.50
2019-01-03T12:26:48.955Z,-0.45
2019-01-03T12:29:24.177Z,-0.46
2019-01-03T12:35:16.368Z,-0.46
2019-01-03T12:43:49.914Z,-0.43
2019-01-03T12:46:20.777Z,-0.42
2019-01-03T12:48:51.598Z,-0.44
2019-01-03T12:52:00.642Z,-0.42
2019-01-03T12:54:31.517Z,-0.43
2019-01-03T12:57:02.884Z,-0.41
2019-01-03T12:59:34.334Z,-0.38
2019-01-03T13:02:18.320Z,-0.39
2019-01-03T13:07:53.357Z,-0.35
2019-01-03T13:10:36.143Z,-0.39
2019-01-03T13:13:07.113Z,-0.38
2019-01-03T13:15:38.079Z,-0.39
2019-01-03T13:18:20.401Z,-0.43
2019-01-03T13:21:02.364Z,-0.44
2019-01-03T13:23:53.145Z,-0.44
2019-01-03T13:26:43.326Z,-0.46
2019-01-03T13:32:35.738Z,-0.47
2019-01-03T13:35:06.461Z,-0.47
2019-01-03T13:40:44.770Z,-0.50
2019-01-03T13:43:15.664Z,-0.47
2019-01-03T13:45:48.127Z,-0.51
2019-01-03T13:48:30.903Z,-0.54
2019-01-03T13:54:22.962Z,-0.57
2019-01-03T14:00:06.687Z,-0.54
2019-01-03T14:02:42.653Z,-0.55
2019-01-03T14:05:43.652Z,-0.56
2019-01-03T14:08:14.595Z,-0.54
2019-01-03T14:11:04.646Z,-0.54
2019-01-03T14:13:36.196Z,-0.57
2019-01-03T14:19:48.355Z,-0.58
2019-01-03T14:22:37.980Z,-0.61
2019-01-03T14:25:10.388Z,-0.62
2019-01-03T14:27:43.059Z,-0.62
2019-01-03T14:30:14.236Z,-0.66
2019-01-03T14:32:46.046Z,-0.66
2019-01-03T14:35:37.424Z,-0.67
2019-01-03T14:38:08.229Z,-0.67
2019-01-03T14:40:39.151Z,-0.67
2019-01-03T14:43:21.831Z,-0.71
2019-01-03T14:49:36.283Z,-0.71
2019-01-03T14:52:07.253Z,-0.75
2019-01-03T14:54:40.858Z,-0.75
2019-01-03T14:57:13.552Z,-0.78
2019-01-03T15:00:22.389Z,-0.80
2019-01-03T15:02:53.624Z,-0.84
2019-01-03T15:05:24.446Z,-0.85
2019-01-03T15:08:14.620Z,-0.87
2019-01-03T15:11:04.522Z,-0.90
2019-01-03T15:13:35.314Z,-0.88
2019-01-03T15:16:06.455Z,-0.88
2019-01-03T15:18:37.459Z,-0.91
2019-01-03T15:21:15.258Z,-0.93
2019-01-03T15:24:07.315Z,-0.95
2019-01-03T15:26:38.157Z,-0.96
2019-01-03T15:29:08.967Z,-1.00
2019-01-03T15:32:01.631Z,-1.04
2019-01-03T15:34:32.544Z,-1.03
2019-01-03T15:37:03.317Z,-1.03
2019-01-03T15:39:34.456Z,-1.04
2019-01-03T15:42:05.493Z,-1.01
2019-01-03T15:47:44.956Z,-1.05
2019-01-03T15:50:15.741Z,-1.05
2019-01-03T15:52:48.197Z,-1.03
2019-01-03T15:58:19.318Z,-1.03
2019-01-03T16:01:09.354Z,-1.01
2019-01-03T16:03:59.436Z,-1.03
2019-01-03T16:06:49.286Z,-1.04
2019-01-03T16:09:20.496Z,-1.07
2019-01-03T16:12:11.001Z,-1.07
2019-01-03T16:14:41.877Z,-1.05
2019-01-03T16:20:34.163Z,-1.08
2019-01-03T16:29:03.128Z,-1.08
2019-01-03T16:31:34.365Z,-1.08
2019-01-03T16:34:24.242Z,-1.07
2019-01-03T16:42:47.859Z,-1.08
2019-01-03T16:45:37.516Z,-1.08
2019-01-03T16:48:10.385Z,-1.08
2019-01-03T16:50:55.960Z,-1.08
2019-01-03T16:57:06.323Z,-1.08
2019-01-03T17:05:43.910Z,-1.11
2019-01-03T17:08:14.814Z,-1.10
2019-01-03T17:10:58.863Z,-1.12
2019-01-03T17:13:41.357Z,-1.10
2019-01-03T17:16:12.809Z,-1.09
2019-01-03T17:18:43.639Z,-1.07
2019-01-03T17:24:17.899Z,-1.06
2019-01-03T17:27:00.451Z,-1.07
2019-01-03T17:29:42.913Z,-1.07
2019-01-03T17:35:34.998Z,-1.08
2019-01-03T17:38:05.891Z,-1.06
2019-01-03T17:43:31.333Z,-1.07
2019-01-03T17:46:03.373Z,-1.06
2019-01-03T17:48:34.201Z,-1.05
2019-01-03T17:51:17.190Z,-1.05
2019-01-03T17:54:01.563Z,-1.05
2019-01-03T18:02:37.913Z,-1.06
2019-01-03T18:05:40.376Z,-1.08
2019-01-03T18:11:12.468Z,-1.12
2019-01-03T18:14:06.880Z,-1.10
2019-01-03T18:16:57.302Z,-1.12
2019-01-03T18:19:47.653Z,-1.17
2019-01-03T18:22:37.577Z,-1.18
2019-01-03T18:25:27.162Z,-1.20
2019-01-03T18:31:19.093Z,-1.27
2019-01-03T18:33:56.550Z,-1.31
2019-01-03T18:36:27.533Z,-1.34
2019-01-03T18:39:09.496Z,-1.34
2019-01-03T18:41:52.442Z,-1.34
2019-01-03T18:44:26.383Z,-1.36
2019-01-03T18:50:35.887Z,-1.33
2019-01-03T18:56:28.110Z,-1.29
2019-01-03T19:02:00.927Z,-1.33
2019-01-03T19:04:31.757Z,-1.32
2019-01-03T19:07:23.034Z,-1.32
2019-01-03T19:10:14.421Z,-1.32
2019-01-03T19:13:08.024Z,-1.36
2019-01-03T19:21:58.053Z,-1.32
2019-01-03T19:24:31.430Z,-1.34
2019-01-03T19:27:14.960Z,-1.32
2019-01-03T19:33:08.908Z,-1.31
2019-01-03T19:35:53.298Z,-1.32
2019-01-03T19:38:24.677Z,-1.33
2019-01-03T19:41:08.576Z,-1.34
2019-01-03T19:51:16.278Z,-1.38
2019-01-03T19:54:00.915Z,-1.37
2019-01-03T19:56:31.805Z,-1.36
2019-01-03T19:59:26.017Z,-1.37
2019-01-03T20:01:56.927Z,-1.37
2019-01-03T20:04:48.617Z,-1.36
2019-01-03T20:07:19.445Z,-1.33
2019-01-03T20:09:50.233Z,-1.30
2019-01-03T20:12:23.377Z,-1.31
2019-01-03T20:14:58.153Z,-1.31
2019-01-03T20:17:28.974Z,-1.31
2019-01-03T20:20:11.636Z,-1.29
2019-01-03T20:22:53.799Z,-1.29
2019-01-03T20:25:24.620Z,-1.27
2019-01-03T20:30:59.893Z,-1.32
2019-01-03T20:33:44.830Z,-1.31
2019-01-03T20:39:37.523Z,-1.29
2019-01-03T20:45:41.837Z,-1.27
2019-01-03T20:48:20.536Z,-1.28
2019-01-03T20:51:13.680Z,-1.24
2019-01-03T20:54:03.544Z,-1.26
2019-01-03T20:56:53.445Z,-1.25
2019-01-03T21:08:20.449Z,-1.21
2019-01-03T21:17:26.947Z,-1.20
2019-01-03T21:20:00.442Z,-1.22
2019-01-03T21:25:28.497Z,-1.18
2019-01-03T21:31:37.273Z,-1.17
2019-01-03T21:34:08.122Z,-1.16
2019-01-03T21:36:59.845Z,-1.17
2019-01-03T21:39:44.739Z,-1.17
2019-01-03T21:42:15.922Z,-1.15
2019-01-03T21:44:59.613Z,-1.15
2019-01-03T21:51:28.271Z,-1.12
2019-01-03T21:54:01.666Z,-1.13
2019-01-03T21:56:52.412Z,-1.14
2019-01-03T21:59:34.291Z,-1.14
2019-01-03T22:02:25.913Z,-1.13
2019-01-03T22:05:17.398Z,-1.12
2019-01-03T22:07:50.091Z,-1.13
2019-01-03T22:10:33.832Z,-1.12
2019-01-03T22:13:25.408Z,-1.16
2019-01-03T22:15:56.462Z,-1.14
2019-01-03T22:21:31.892Z,-1.15
2019-01-03T22:24:02.777Z,-1.15
2019-01-03T22:26:53.708Z,-1.15
2019-01-03T22:33:01.969Z,-1.15
2019-01-03T22:38:36.895Z,-1.17
2019-01-03T22:41:21.223Z,-1.17
2019-01-03T22:43:52.090Z,-1.17
2019-01-03T22:55:36.491Z,-1.11
2019-01-03T22:58:07.255Z,-1.14
2019-01-03T23:00:57.757Z,-1.15
2019-01-03T23:03:47.989Z,-1.16
2019-01-03T23:06:37.800Z,-1.18
2019-01-03T23:09:09.247Z,-1.17
2019-01-03T23:11:42.087Z,-1.16
2019-01-03T23:14:23.957Z,-1.14
2019-01-03T23:16:54.940Z,-1.16
2019-01-03T23:19:25.776Z,-1.12
2019-01-03T23:22:08.017Z,-1.14
2019-01-03T23:24:50.712Z,-1.15
2019-01-03T23:27:21.643Z,-1.18
2019-01-03T23:29:52.609Z,-1.19
2019-01-03T23:32:34.663Z,-1.20
2019-01-03T23:35:18.466Z,-1.18
2019-01-03T23:37:58.842Z,-1.20
2019-01-03T23:40:31.405Z,-1.19
2019-01-03T23:43:21.725Z,-1.20
2019-01-03T23:46:11.668Z,-1.20
2019-01-03T23:57:28.231Z,-1.18
2019-01-03T23:59:59.176Z,-1.21
